NWK1611 YPKG-YPPH
Flight info
| Callsign | NWK1611 |
|---|---|
| Flight time | 0h 54m |
| Altitude | 36000 |
| Route | KG Q41 MALUP Q158 PH |
| Aircraft | A319/M-SDE3FGHIRWY/LB1 |
Departure
| Time | 2026-05-06 19:20 |
|---|---|
| Airport | Kalgoorlie Boulder Airport (YPKG) |
Arrival
| Time | 2026-05-06 20:14 |
|---|---|
| Airport | Perth International Airport (YPPH) |
| Time | Latitude | Longitude | Altitude | Speed | Heading |
|---|---|---|---|---|---|
| 2026-05-06 19:03 | -30.78592 | 121.45806 | 1212 ft | 0 kts | 59° |
| 2026-05-06 19:15 | -30.78592 | 121.45809 | 1212 ft | 1 kts | 74° |
| 2026-05-06 19:15 | -30.78595 | 121.45812 | 1212 ft | 0 kts | 111° |
| 2026-05-06 19:16 | -30.78599 | 121.45814 | 1212 ft | 1 kts | 147° |
| 2026-05-06 19:16 | -30.78605 | 121.45813 | 1212 ft | 2 kts | 178° |
| 2026-05-06 19:16 | -30.78625 | 121.45811 | 1212 ft | 4 kts | 187° |
| 2026-05-06 19:16 | -30.78661 | 121.45800 | 1212 ft | 7 kts | 199° |
| 2026-05-06 19:17 | -30.78713 | 121.45779 | 1212 ft | 9 kts | 200° |
| 2026-05-06 19:17 | -30.78781 | 121.45750 | 1212 ft | 11 kts | 200° |
| 2026-05-06 19:17 | -30.78861 | 121.45715 | 1213 ft | 13 kts | 201° |
| 2026-05-06 19:17 | -30.78883 | 121.45639 | 1214 ft | 13 kts | 290° |
| 2026-05-06 19:18 | -30.78853 | 121.45539 | 1214 ft | 12 kts | 278° |
| 2026-05-06 19:18 | -30.78835 | 121.45476 | 1214 ft | 8 kts | 26° |
| 2026-05-06 19:18 | -30.78840 | 121.45505 | 1214 ft | 0 kts | 111° |
| 2026-05-06 19:19 | -30.78841 | 121.45508 | 1214 ft | 1 kts | 111° |
| 2026-05-06 19:19 | -30.78880 | 121.45630 | 1214 ft | 45 kts | 110° |
| 2026-05-06 19:19 | -30.79072 | 121.46227 | 1212 ft | 112 kts | 110° |
| 2026-05-06 19:19 | -30.79417 | 121.47255 | 1439 ft | 144 kts | 112° |
| 2026-05-06 19:20 | -30.79766 | 121.48334 | 2152 ft | 142 kts | 110° |
| 2026-05-06 19:20 | -30.80124 | 121.49402 | 2922 ft | 140 kts | 109° |
| 2026-05-06 19:20 | -30.80533 | 121.50514 | 3290 ft | 161 kts | 110° |
| 2026-05-06 19:20 | -30.81008 | 121.51767 | 3587 ft | 183 kts | 112° |
| 2026-05-06 19:21 | -30.81884 | 121.52972 | 3905 ft | 214 kts | 142° |
| 2026-05-06 19:21 | -30.83414 | 121.53485 | 4290 ft | 251 kts | 179° |
| 2026-05-06 19:21 | -30.85101 | 121.52725 | 4971 ft | 275 kts | 217° |
| 2026-05-06 19:21 | -30.86343 | 121.50995 | 5919 ft | 283 kts | 237° |
| 2026-05-06 19:22 | -30.87273 | 121.48954 | 6893 ft | 288 kts | 244° |
| 2026-05-06 19:22 | -30.88083 | 121.46805 | 7786 ft | 292 kts | 246° |
| 2026-05-06 19:22 | -30.88881 | 121.44619 | 8684 ft | 295 kts | 245° |
| 2026-05-06 19:22 | -30.89713 | 121.42420 | 9588 ft | 298 kts | 244° |
| 2026-05-06 19:23 | -30.90590 | 121.40213 | 10344 ft | 308 kts | 243° |
| 2026-05-06 19:23 | -30.91542 | 121.37912 | 10623 ft | 331 kts | 242° |
| 2026-05-06 19:23 | -30.92600 | 121.35425 | 11134 ft | 343 kts | 242° |
| 2026-05-06 19:23 | -30.93679 | 121.32925 | 11839 ft | 348 kts | 242° |
| 2026-05-06 19:24 | -30.94776 | 121.30396 | 12605 ft | 352 kts | 242° |
| 2026-05-06 19:24 | -30.95873 | 121.27871 | 13344 ft | 356 kts | 242° |
| 2026-05-06 19:24 | -30.96995 | 121.25283 | 14081 ft | 359 kts | 242° |
| 2026-05-06 19:24 | -30.98125 | 121.22667 | 14731 ft | 363 kts | 242° |
| 2026-05-06 19:25 | -30.99262 | 121.20023 | 15338 ft | 368 kts | 242° |
| 2026-05-06 19:25 | -31.00413 | 121.17336 | 15935 ft | 373 kts | 242° |
| 2026-05-06 19:25 | -31.01579 | 121.14615 | 16528 ft | 378 kts | 242° |
| 2026-05-06 19:25 | -31.02763 | 121.11857 | 17114 ft | 383 kts | 242° |
| 2026-05-06 19:26 | -31.03960 | 121.09062 | 17701 ft | 387 kts | 242° |
| 2026-05-06 19:26 | -31.05172 | 121.06232 | 18281 ft | 392 kts | 242° |
| 2026-05-06 19:26 | -31.06398 | 121.03369 | 18849 ft | 397 kts | 242° |
| 2026-05-06 19:26 | -31.07642 | 121.00462 | 19367 ft | 401 kts | 242° |
| 2026-05-06 19:27 | -31.08890 | 120.97541 | 19940 ft | 404 kts | 242° |
| 2026-05-06 19:27 | -31.10133 | 120.94635 | 20515 ft | 406 kts | 242° |
| 2026-05-06 19:27 | -31.11398 | 120.91680 | 21101 ft | 408 kts | 242° |
| 2026-05-06 19:27 | -31.12666 | 120.88709 | 21681 ft | 410 kts | 242° |
| 2026-05-06 19:28 | -31.13937 | 120.85719 | 22257 ft | 412 kts | 242° |
| 2026-05-06 19:28 | -31.15216 | 120.82714 | 22825 ft | 414 kts | 242° |
| 2026-05-06 19:28 | -31.16502 | 120.79696 | 23383 ft | 416 kts | 242° |
| 2026-05-06 19:28 | -31.17792 | 120.76663 | 23925 ft | 418 kts | 242° |
| 2026-05-06 19:29 | -31.19088 | 120.73609 | 24395 ft | 420 kts | 242° |
| 2026-05-06 19:29 | -31.20388 | 120.70542 | 24846 ft | 422 kts | 242° |
| 2026-05-06 19:29 | -31.21693 | 120.67461 | 25267 ft | 424 kts | 242° |
| 2026-05-06 19:29 | -31.23005 | 120.64365 | 25694 ft | 426 kts | 242° |
| 2026-05-06 19:30 | -31.24324 | 120.61251 | 26118 ft | 428 kts | 242° |
| 2026-05-06 19:30 | -31.25647 | 120.58126 | 26536 ft | 430 kts | 242° |
| 2026-05-06 19:30 | -31.26976 | 120.54981 | 26945 ft | 432 kts | 242° |
| 2026-05-06 19:30 | -31.28312 | 120.51819 | 27357 ft | 434 kts | 243° |
| 2026-05-06 19:31 | -31.29650 | 120.48644 | 27771 ft | 437 kts | 243° |
| 2026-05-06 19:31 | -31.30991 | 120.45452 | 28170 ft | 439 kts | 243° |
| 2026-05-06 19:31 | -31.33564 | 120.38935 | 28967 ft | 443 kts | 245° |
| 2026-05-06 19:32 | -31.34802 | 120.35622 | 29357 ft | 446 kts | 245° |
| 2026-05-06 19:32 | -31.36039 | 120.32279 | 29739 ft | 448 kts | 245° |
| 2026-05-06 19:32 | -31.37280 | 120.28930 | 30114 ft | 450 kts | 245° |
| 2026-05-06 19:32 | -31.38111 | 120.26704 | 30358 ft | 451 kts | 245° |
| 2026-05-06 19:33 | -31.39792 | 120.22237 | 30794 ft | 454 kts | 245° |
| 2026-05-06 19:33 | -31.41074 | 120.18857 | 31099 ft | 456 kts | 245° |
| 2026-05-06 19:33 | -31.42368 | 120.15459 | 31400 ft | 457 kts | 245° |
| 2026-05-06 19:33 | -31.43663 | 120.12047 | 31698 ft | 459 kts | 245° |
| 2026-05-06 19:34 | -31.44521 | 120.09780 | 31866 ft | 460 kts | 245° |
| 2026-05-06 19:34 | -31.45817 | 120.06347 | 32197 ft | 461 kts | 245° |
| 2026-05-06 19:34 | -31.47108 | 120.02915 | 32619 ft | 459 kts | 245° |
| 2026-05-06 19:34 | -31.48391 | 119.99496 | 33048 ft | 458 kts | 245° |
| 2026-05-06 19:35 | -31.49666 | 119.96087 | 33476 ft | 456 kts | 245° |
| 2026-05-06 19:35 | -31.50941 | 119.92676 | 33910 ft | 455 kts | 245° |
| 2026-05-06 19:35 | -31.52207 | 119.89284 | 34340 ft | 453 kts | 245° |
| 2026-05-06 19:35 | -31.53475 | 119.85897 | 34741 ft | 452 kts | 245° |
| 2026-05-06 19:36 | -31.54739 | 119.82530 | 35115 ft | 450 kts | 245° |
| 2026-05-06 19:36 | -31.55998 | 119.79173 | 35495 ft | 449 kts | 245° |
| 2026-05-06 19:36 | -31.57252 | 119.75819 | 35864 ft | 447 kts | 245° |
| 2026-05-06 19:36 | -31.58496 | 119.72487 | 36224 ft | 446 kts | 245° |
| 2026-05-06 19:37 | -31.59739 | 119.69156 | 36466 ft | 445 kts | 245° |
| 2026-05-06 19:37 | -31.60975 | 119.65843 | 36516 ft | 442 kts | 245° |
| 2026-05-06 19:37 | -31.63419 | 119.59281 | 36514 ft | 441 kts | 245° |
| 2026-05-06 19:38 | -31.65869 | 119.52684 | 36509 ft | 440 kts | 245° |
| 2026-05-06 19:38 | -31.68316 | 119.46091 | 36515 ft | 441 kts | 245° |
| 2026-05-06 19:39 | -31.70759 | 119.39487 | 36515 ft | 441 kts | 245° |
| 2026-05-06 19:39 | -31.73195 | 119.32880 | 36517 ft | 441 kts | 245° |
| 2026-05-06 19:40 | -31.75634 | 119.26273 | 36519 ft | 441 kts | 245° |
| 2026-05-06 19:40 | -31.78061 | 119.19658 | 36521 ft | 441 kts | 245° |
| 2026-05-06 19:41 | -31.80483 | 119.13038 | 36523 ft | 441 kts | 245° |
| 2026-05-06 19:41 | -31.82889 | 119.06460 | 36524 ft | 440 kts | 245° |
| 2026-05-06 19:42 | -31.85322 | 118.99842 | 36524 ft | 440 kts | 245° |
| 2026-05-06 19:42 | -31.87744 | 118.93224 | 36519 ft | 440 kts | 245° |
| 2026-05-06 19:43 | -31.90157 | 118.86588 | 36519 ft | 440 kts | 245° |
| 2026-05-06 19:43 | -31.92564 | 118.79958 | 36520 ft | 440 kts | 245° |
| 2026-05-06 19:44 | -31.94957 | 118.73360 | 36520 ft | 441 kts | 245° |
| 2026-05-06 19:44 | -31.97359 | 118.66719 | 36520 ft | 441 kts | 245° |
| 2026-05-06 19:45 | -31.99762 | 118.60081 | 36514 ft | 440 kts | 245° |
| 2026-05-06 19:45 | -32.02163 | 118.53432 | 36515 ft | 440 kts | 245° |
| 2026-05-06 19:46 | -32.04557 | 118.46787 | 36519 ft | 440 kts | 245° |
| 2026-05-06 19:46 | -32.06943 | 118.40137 | 36518 ft | 440 kts | 246° |
| 2026-05-06 19:47 | -32.09420 | 118.33577 | 36515 ft | 440 kts | 243° |
| 2026-05-06 19:47 | -32.12070 | 118.27075 | 36517 ft | 440 kts | 243° |
| 2026-05-06 19:48 | -32.14722 | 118.20577 | 36519 ft | 440 kts | 243° |
| 2026-05-06 19:48 | -32.17325 | 118.14046 | 36515 ft | 440 kts | 244° |
| 2026-05-06 19:49 | -32.19907 | 118.07499 | 36512 ft | 440 kts | 244° |
| 2026-05-06 19:49 | -32.22493 | 118.00942 | 36507 ft | 440 kts | 243° |
| 2026-05-06 19:50 | -32.25085 | 117.94393 | 36510 ft | 440 kts | 243° |
| 2026-05-06 19:50 | -32.27676 | 117.87840 | 36511 ft | 440 kts | 244° |
| 2026-05-06 19:51 | -32.30257 | 117.81283 | 36511 ft | 440 kts | 244° |
| 2026-05-06 19:51 | -32.31547 | 117.77996 | 36256 ft | 441 kts | 244° |
| 2026-05-06 19:51 | -32.32840 | 117.74689 | 35475 ft | 446 kts | 244° |
| 2026-05-06 19:52 | -32.34150 | 117.71334 | 34679 ft | 452 kts | 244° |
| 2026-05-06 19:52 | -32.35261 | 117.67873 | 33708 ft | 460 kts | 253° |
| 2026-05-06 19:52 | -32.35846 | 117.64169 | 33234 ft | 456 kts | 263° |
| 2026-05-06 19:52 | -32.35927 | 117.60446 | 32709 ft | 453 kts | 273° |
| 2026-05-06 19:53 | -32.35649 | 117.56747 | 32172 ft | 450 kts | 275° |
| 2026-05-06 19:53 | -32.35351 | 117.53075 | 31638 ft | 447 kts | 275° |
| 2026-05-06 19:53 | -32.35050 | 117.49428 | 31102 ft | 444 kts | 275° |
| 2026-05-06 19:53 | -32.34748 | 117.45809 | 30566 ft | 441 kts | 275° |
| 2026-05-06 19:54 | -32.34446 | 117.42206 | 29990 ft | 438 kts | 275° |
| 2026-05-06 19:54 | -32.34145 | 117.38641 | 29477 ft | 433 kts | 275° |
| 2026-05-06 19:54 | -32.33848 | 117.35115 | 28959 ft | 429 kts | 275° |
| 2026-05-06 19:54 | -32.33552 | 117.31617 | 28457 ft | 425 kts | 275° |
| 2026-05-06 19:55 | -32.33257 | 117.28158 | 27960 ft | 421 kts | 275° |
| 2026-05-06 19:55 | -32.32963 | 117.24724 | 27472 ft | 418 kts | 275° |
| 2026-05-06 19:55 | -32.32672 | 117.21317 | 26997 ft | 414 kts | 275° |
| 2026-05-06 19:55 | -32.32381 | 117.17937 | 26538 ft | 411 kts | 276° |
| 2026-05-06 19:56 | -32.32094 | 117.14620 | 26098 ft | 409 kts | 275° |
| 2026-05-06 19:56 | -32.31806 | 117.11284 | 25655 ft | 406 kts | 275° |
| 2026-05-06 19:56 | -32.31520 | 117.07961 | 25224 ft | 404 kts | 276° |
| 2026-05-06 19:56 | -32.31233 | 117.04656 | 24533 ft | 406 kts | 276° |
| 2026-05-06 19:57 | -32.30940 | 117.01320 | 23878 ft | 406 kts | 276° |
| 2026-05-06 19:57 | -32.30652 | 116.98040 | 23446 ft | 398 kts | 276° |
| 2026-05-06 19:57 | -32.30369 | 116.94800 | 22989 ft | 395 kts | 276° |
| 2026-05-06 19:57 | -32.30087 | 116.91591 | 22543 ft | 391 kts | 276° |
| 2026-05-06 19:58 | -32.29803 | 116.88410 | 22096 ft | 387 kts | 276° |
| 2026-05-06 19:58 | -32.29520 | 116.85259 | 21642 ft | 384 kts | 276° |
| 2026-05-06 19:58 | -32.29243 | 116.82141 | 21188 ft | 381 kts | 276° |
| 2026-05-06 19:58 | -32.28970 | 116.79080 | 20730 ft | 378 kts | 276° |
| 2026-05-06 19:59 | -32.28696 | 116.75997 | 20270 ft | 376 kts | 276° |
| 2026-05-06 19:59 | -32.28422 | 116.72928 | 19802 ft | 374 kts | 276° |
| 2026-05-06 19:59 | -32.28148 | 116.69874 | 19336 ft | 373 kts | 277° |
| 2026-05-06 19:59 | -32.27873 | 116.66835 | 18871 ft | 372 kts | 277° |
| 2026-05-06 20:00 | -32.27598 | 116.63799 | 18360 ft | 370 kts | 277° |
| 2026-05-06 20:00 | -32.27324 | 116.60791 | 17892 ft | 367 kts | 276° |
| 2026-05-06 20:00 | -32.27054 | 116.57810 | 17431 ft | 363 kts | 276° |
| 2026-05-06 20:00 | -32.26735 | 116.54857 | 16972 ft | 360 kts | 281° |
| 2026-05-06 20:01 | -32.26231 | 116.51975 | 16526 ft | 357 kts | 282° |
| 2026-05-06 20:01 | -32.25733 | 116.49117 | 16078 ft | 354 kts | 281° |
| 2026-05-06 20:01 | -32.25242 | 116.46278 | 15633 ft | 351 kts | 281° |
| 2026-05-06 20:01 | -32.24754 | 116.43458 | 15186 ft | 349 kts | 281° |
| 2026-05-06 20:02 | -32.24267 | 116.40660 | 14751 ft | 347 kts | 281° |
| 2026-05-06 20:02 | -32.23783 | 116.37881 | 14304 ft | 345 kts | 281° |
| 2026-05-06 20:02 | -32.23307 | 116.35155 | 13835 ft | 342 kts | 281° |
| 2026-05-06 20:02 | -32.22827 | 116.32413 | 13402 ft | 338 kts | 281° |
| 2026-05-06 20:03 | -32.22351 | 116.29703 | 12975 ft | 335 kts | 281° |
| 2026-05-06 20:03 | -32.21881 | 116.27022 | 12553 ft | 332 kts | 281° |
| 2026-05-06 20:03 | -32.21415 | 116.24366 | 12126 ft | 329 kts | 281° |
| 2026-05-06 20:03 | -32.20950 | 116.21726 | 11705 ft | 327 kts | 280° |
| 2026-05-06 20:04 | -32.20489 | 116.19109 | 11291 ft | 325 kts | 280° |
| 2026-05-06 20:04 | -32.20030 | 116.16505 | 10882 ft | 323 kts | 281° |
| 2026-05-06 20:04 | -32.19697 | 116.13896 | 10473 ft | 320 kts | 271° |
| 2026-05-06 20:04 | -32.19719 | 116.11301 | 10227 ft | 311 kts | 268° |
| 2026-05-06 20:05 | -32.19761 | 116.08834 | 9927 ft | 299 kts | 267° |
| 2026-05-06 20:05 | -32.19797 | 116.06374 | 9717 ft | 294 kts | 267° |
| 2026-05-06 20:05 | -32.19825 | 116.03978 | 9348 ft | 298 kts | 268° |
| 2026-05-06 20:05 | -32.19557 | 116.01541 | 8952 ft | 299 kts | 282° |
| 2026-05-06 20:06 | -32.19039 | 115.99154 | 8319 ft | 299 kts | 283° |
| 2026-05-06 20:06 | -32.18522 | 115.96785 | 7714 ft | 297 kts | 283° |
| 2026-05-06 20:06 | -32.18013 | 115.94458 | 7411 ft | 286 kts | 283° |
| 2026-05-06 20:06 | -32.17531 | 115.92250 | 7263 ft | 270 kts | 283° |
| 2026-05-06 20:07 | -32.16965 | 115.90213 | 7149 ft | 253 kts | 294° |
| 2026-05-06 20:07 | -32.16071 | 115.88449 | 6851 ft | 251 kts | 308° |
| 2026-05-06 20:07 | -32.14985 | 115.86852 | 6181 ft | 256 kts | 310° |
| 2026-05-06 20:07 | -32.13860 | 115.85217 | 5649 ft | 255 kts | 310° |
| 2026-05-06 20:08 | -32.12767 | 115.83627 | 5325 ft | 244 kts | 311° |
| 2026-05-06 20:08 | -32.11623 | 115.82223 | 4984 ft | 231 kts | 324° |
| 2026-05-06 20:08 | -32.10295 | 115.81260 | 4652 ft | 219 kts | 339° |
| 2026-05-06 20:08 | -32.08883 | 115.80723 | 4321 ft | 208 kts | 353° |
| 2026-05-06 20:09 | -32.07474 | 115.80519 | 4015 ft | 199 kts | 358° |
| 2026-05-06 20:09 | -32.06133 | 115.80347 | 3702 ft | 190 kts | 358° |
| 2026-05-06 20:09 | -32.04852 | 115.80180 | 3402 ft | 180 kts | 359° |
| 2026-05-06 20:09 | -32.03623 | 115.80020 | 3343 ft | 177 kts | 359° |
| 2026-05-06 20:10 | -32.02402 | 115.79870 | 3268 ft | 175 kts | 1° |
| 2026-05-06 20:10 | -32.01243 | 115.80130 | 3189 ft | 168 kts | 30° |
| 2026-05-06 20:10 | -32.00375 | 115.81009 | 3020 ft | 166 kts | 55° |
| 2026-05-06 20:10 | -31.99929 | 115.82245 | 2776 ft | 164 kts | 70° |
| 2026-05-06 20:11 | -31.99569 | 115.83512 | 2525 ft | 162 kts | 69° |
| 2026-05-06 20:11 | -31.99212 | 115.84753 | 2297 ft | 161 kts | 69° |
| 2026-05-06 20:11 | -31.98860 | 115.85973 | 2042 ft | 153 kts | 69° |
| 2026-05-06 20:11 | -31.98528 | 115.87123 | 1825 ft | 143 kts | 69° |
| 2026-05-06 20:12 | -31.98098 | 115.88132 | 1634 ft | 136 kts | 58° |
| 2026-05-06 20:12 | -31.97609 | 115.89072 | 1456 ft | 133 kts | 59° |
| 2026-05-06 20:12 | -31.97142 | 115.89980 | 1277 ft | 126 kts | 59° |
| 2026-05-06 20:12 | -31.96696 | 115.90848 | 1109 ft | 122 kts | 60° |
| 2026-05-06 20:13 | -31.96258 | 115.91702 | 940 ft | 122 kts | 61° |
| 2026-05-06 20:13 | -31.95818 | 115.92563 | 766 ft | 123 kts | 61° |
| 2026-05-06 20:13 | -31.95378 | 115.93420 | 568 ft | 122 kts | 61° |
| 2026-05-06 20:13 | -31.94942 | 115.94271 | 416 ft | 121 kts | 60° |
| 2026-05-06 20:14 | -31.94501 | 115.95128 | 262 ft | 123 kts | 61° |
| 2026-05-06 20:14 | -31.94066 | 115.95982 | 116 ft | 121 kts | 62° |
| 2026-05-06 20:14 | -31.93669 | 115.96760 | 61 ft | 98 kts | 58° |
| 2026-05-06 20:14 | -31.93463 | 115.97154 | 68 ft | 32 kts | 59° |
| 2026-05-06 20:15 | -31.93336 | 115.97402 | 68 ft | 39 kts | 59° |
| 2026-05-06 20:15 | -31.93199 | 115.97667 | 68 ft | 28 kts | 59° |
| 2026-05-06 20:15 | -31.93118 | 115.97782 | 66 ft | 17 kts | 10° |
| 2026-05-06 20:15 | -31.93059 | 115.97687 | 66 ft | 17 kts | 284° |
| 2026-05-06 20:16 | -31.93028 | 115.97542 | 66 ft | 20 kts | 284° |
| 2026-05-06 20:16 | -31.92992 | 115.97376 | 61 ft | 22 kts | 284° |
| 2026-05-06 20:16 | -31.92953 | 115.97190 | 68 ft | 25 kts | 284° |
| 2026-05-06 20:16 | -31.92908 | 115.96985 | 62 ft | 27 kts | 284° |
| 2026-05-06 20:17 | -31.92863 | 115.96764 | 62 ft | 26 kts | 284° |
| 2026-05-06 20:17 | -31.92844 | 115.96637 | 68 ft | 13 kts | 253° |
| 2026-05-06 20:17 | -31.92925 | 115.96591 | 65 ft | 12 kts | 193° |
| 2026-05-06 20:17 | -31.92997 | 115.96533 | 64 ft | 14 kts | 228° |
| 2026-05-06 20:18 | -31.93069 | 115.96440 | 63 ft | 17 kts | 227° |
| 2026-05-06 20:18 | -31.93150 | 115.96336 | 66 ft | 16 kts | 227° |
| 2026-05-06 20:18 | -31.93205 | 115.96264 | 62 ft | 8 kts | 235° |
| 2026-05-06 20:18 | -31.93177 | 115.96214 | 68 ft | 8 kts | 321° |
| 2026-05-06 20:19 | -31.93148 | 115.96149 | 68 ft | 10 kts | 291° |
| 2026-05-06 20:19 | -31.93166 | 115.96111 | 64 ft | 7 kts | 194° |
| 2026-05-06 20:19 | -31.93190 | 115.96102 | 60 ft | 3 kts | 200° |
| 2026-05-06 20:19 | -31.93197 | 115.96098 | 64 ft | 0 kts | 200° |